sensor_id;sensor_type;location;lat;lon;timestamp;pressure;altitude;pressure_sealevel;temperature;humidity
70015;BME280;57358;51.094;6.760;2022-09-24T00:01:17;100885.38;;;11.88;100.00
70015;BME280;57358;51.094;6.760;2022-09-24T00:03:59;100674.84;;;10.46;100.00
70015;BME280;57358;51.094;6.760;2022-09-24T00:06:28;100913.66;;;12.00;100.00
70015;BME280;57358;51.094;6.760;2022-09-24T00:08:56;100916.53;;;11.95;100.00
70015;BME280;57358;51.094;6.760;2022-09-24T00:11:24;100910.78;;;11.89;100.00
70015;BME280;57358;51.094;6.760;2022-09-24T00:13:52;100910.13;;;11.84;100.00
70015;BME280;57358;51.094;6.760;2022-09-24T00:16:21;100916.41;;;11.81;100.00
70015;BME280;57358;51.094;6.760;2022-09-24T00:18:48;100920.91;;;11.79;100.00
70015;BME280;57358;51.094;6.760;2022-09-24T00:21:19;100921.66;;;11.81;100.00
70015;BME280;57358;51.094;6.760;2022-09-24T00:23:53;100892.47;;;11.70;100.00
70015;BME280;57358;51.094;6.760;2022-09-24T00:26:21;100912.69;;;11.85;100.00
70015;BME280;57358;51.094;6.760;2022-09-24T00:29:07;100704.38;;;10.67;100.00
70015;BME280;57358;51.094;6.760;2022-09-24T00:31:34;100885.97;;;11.77;100.00
70015;BME280;57358;51.094;6.760;2022-09-24T00:34:01;100926.38;;;12.08;100.00
70015;BME280;57358;51.094;6.760;2022-09-24T00:36:27;100871.72;;;11.81;100.00
70015;BME280;57358;51.094;6.760;2022-09-24T00:38:56;100853.63;;;11.75;100.00
70015;BME280;57358;51.094;6.760;2022-09-24T00:41:26;100924.88;;;12.20;100.00
70015;BME280;57358;51.094;6.760;2022-09-24T00:43:53;100909.75;;;12.23;100.00
70015;BME280;57358;51.094;6.760;2022-09-24T00:46:40;100916.63;;;12.26;100.00
70015;BME280;57358;51.094;6.760;2022-09-24T00:49:17;100868.78;;;12.03;100.00
70015;BME280;57358;51.094;6.760;2022-09-24T00:51:48;100865.47;;;12.00;100.00
70015;BME280;57358;51.094;6.760;2022-09-24T00:54:22;100902.28;;;12.31;100.00
70015;BME280;57358;51.094;6.760;2022-09-24T00:56:50;100897.78;;;12.33;100.00
70015;BME280;57358;51.094;6.760;2022-09-24T00:59:18;100901.25;;;12.34;100.00
70015;BME280;57358;51.094;6.760;2022-09-24T01:01:47;100863.09;;;12.11;100.00
70015;BME280;57358;51.094;6.760;2022-09-24T01:04:16;100883.78;;;12.33;100.00
70015;BME280;57358;51.094;6.760;2022-09-24T01:06:47;100881.22;;;12.31;100.00
70015;BME280;57358;51.094;6.760;2022-09-24T01:09:15;100839.16;;;12.00;100.00
70015;BME280;57358;51.094;6.760;2022-09-24T01:11:57;100885.75;;;12.29;100.00
70015;BME280;57358;51.094;6.760;2022-09-24T01:17:21;100886.94;;;12.24;100.00
70015;BME280;57358;51.094;6.760;2022-09-24T01:20:15;100887.34;;;12.16;100.00
70015;BME280;57358;51.094;6.760;2022-09-24T01:22:52;100883.19;;;12.12;100.00
70015;BME280;57358;51.094;6.760;2022-09-24T01:31:13;100859.25;;;12.01;100.00
70015;BME280;57358;51.094;6.760;2022-09-24T01:33:45;100867.75;;;12.06;100.00
70015;BME280;57358;51.094;6.760;2022-09-24T01:36:15;100834.72;;;11.84;100.00
70015;BME280;57358;51.094;6.760;2022-09-24T01:38:43;100771.03;;;11.47;100.00
70015;BME280;57358;51.094;6.760;2022-09-24T01:41:13;100831.16;;;11.69;100.00
70015;BME280;57358;51.094;6.760;2022-09-24T01:43:42;100863.09;;;11.95;100.00
70015;BME280;57358;51.094;6.760;2022-09-24T01:46:10;100833.72;;;11.71;100.00
70015;BME280;57358;51.094;6.760;2022-09-24T01:48:39;100854.34;;;11.94;100.00
70015;BME280;57358;51.094;6.760;2022-09-24T01:53:36;100794.00;;;11.60;100.00
70015;BME280;57358;51.094;6.760;2022-09-24T01:56:26;100848.16;;;11.95;100.00
70015;BME280;57358;51.094;6.760;2022-09-24T01:59:01;100710.91;;;11.09;100.00
70015;BME280;57358;51.094;6.760;2022-09-24T02:01:42;100856.03;;;11.95;100.00
70015;BME280;57358;51.094;6.760;2022-09-24T02:04:13;100832.19;;;11.83;100.00
70015;BME280;57358;51.094;6.760;2022-09-24T02:09:29;100843.81;;;11.94;100.00
70015;BME280;57358;51.094;6.760;2022-09-24T02:11:57;100836.88;;;11.93;100.00
70015;BME280;57358;51.094;6.760;2022-09-24T02:14:28;100787.22;;;11.55;100.00
70015;BME280;57358;51.094;6.760;2022-09-24T02:16:58;100827.94;;;11.80;100.00
70015;BME280;57358;51.094;6.760;2022-09-24T02:19:27;100819.03;;;11.83;100.00
70015;BME280;57358;51.094;6.760;2022-09-24T02:21:55;100838.56;;;11.94;100.00
70015;BME280;57358;51.094;6.760;2022-09-24T02:27:10;100850.78;;;11.95;100.00
70015;BME280;57358;51.094;6.760;2022-09-24T02:29:37;100808.69;;;11.80;100.00
70015;BME280;57358;51.094;6.760;2022-09-24T02:32:05;100750.84;;;11.48;100.00
70015;BME280;57358;51.094;6.760;2022-09-24T02:34:37;100815.91;;;11.92;100.00
70015;BME280;57358;51.094;6.760;2022-09-24T02:37:10;100816.00;;;11.90;100.00
70015;BME280;57358;51.094;6.760;2022-09-24T02:39:37;100752.28;;;11.53;100.00
70015;BME280;57358;51.094;6.760;2022-09-24T02:42:04;100767.56;;;11.63;100.00
70015;BME280;57358;51.094;6.760;2022-09-24T02:44:32;100793.59;;;11.83;100.00
70015;BME280;57358;51.094;6.760;2022-09-24T02:46:59;100752.78;;;11.60;100.00
70015;BME280;57358;51.094;6.760;2022-09-24T02:49:26;100728.22;;;11.45;100.00
70015;BME280;57358;51.094;6.760;2022-09-24T02:51:52;100742.53;;;11.55;100.00
70015;BME280;57358;51.094;6.760;2022-09-24T02:54:19;100802.84;;;11.90;100.00
70015;BME280;57358;51.094;6.760;2022-09-24T02:56:45;100794.03;;;11.91;100.00
70015;BME280;57358;51.094;6.760;2022-09-24T02:59:12;100784.00;;;11.82;100.00
70015;BME280;57358;51.094;6.760;2022-09-24T03:01:39;100719.16;;;11.51;100.00
70015;BME280;57358;51.094;6.760;2022-09-24T03:04:05;100788.00;;;11.89;100.00
70015;BME280;57358;51.094;6.760;2022-09-24T03:06:32;100777.41;;;11.75;100.00
70015;BME280;57358;51.094;6.760;2022-09-24T03:08:59;100783.84;;;11.85;100.00
70015;BME280;57358;51.094;6.760;2022-09-24T03:11:27;100717.97;;;11.41;100.00
70015;BME280;57358;51.094;6.760;2022-09-24T03:13:54;100758.31;;;11.55;100.00
70015;BME280;57358;51.094;6.760;2022-09-24T03:16:20;100753.31;;;11.67;100.00
70015;BME280;57358;51.094;6.760;2022-09-24T03:18:47;100768.75;;;11.73;100.00
70015;BME280;57358;51.094;6.760;2022-09-24T03:21:16;100772.28;;;11.72;100.00
70015;BME280;57358;51.094;6.760;2022-09-24T03:23:43;100708.03;;;11.30;100.00
70015;BME280;57358;51.094;6.760;2022-09-24T03:26:10;100713.13;;;11.33;100.00
70015;BME280;57358;51.094;6.760;2022-09-24T03:28:37;100678.00;;;11.02;100.00
70015;BME280;57358;51.094;6.760;2022-09-24T03:31:04;100755.00;;;11.52;100.00
70015;BME280;57358;51.094;6.760;2022-09-24T03:33:38;100671.34;;;10.96;100.00
70015;BME280;57358;51.094;6.760;2022-09-24T03:36:10;100759.06;;;11.42;100.00
70015;BME280;57358;51.094;6.760;2022-09-24T03:38:38;100688.09;;;10.94;100.00
70015;BME280;57358;51.094;6.760;2022-09-24T03:41:06;100757.63;;;11.36;100.00
70015;BME280;57358;51.094;6.760;2022-09-24T03:43:33;100752.53;;;11.33;100.00
70015;BME280;57358;51.094;6.760;2022-09-24T03:46:00;100748.22;;;11.32;100.00
70015;BME280;57358;51.094;6.760;2022-09-24T03:48:27;100582.06;;;10.31;100.00
70015;BME280;57358;51.094;6.760;2022-09-24T03:50:55;100751.94;;;11.28;100.00
70015;BME280;57358;51.094;6.760;2022-09-24T03:53:21;100723.53;;;11.03;100.00
70015;BME280;57358;51.094;6.760;2022-09-24T03:55:57;100740.09;;;11.21;100.00
70015;BME280;57358;51.094;6.760;2022-09-24T03:58:24;100757.19;;;11.28;100.00
70015;BME280;57358;51.094;6.760;2022-09-24T04:00:51;100707.63;;;10.88;100.00
70015;BME280;57358;51.094;6.760;2022-09-24T04:03:20;100751.94;;;11.28;100.00
70015;BME280;57358;51.094;6.760;2022-09-24T04:05:47;100703.63;;;10.98;100.00
70015;BME280;57358;51.094;6.760;2022-09-24T04:08:13;100689.00;;;10.77;100.00
70015;BME280;57358;51.094;6.760;2022-09-24T04:10:39;100746.88;;;11.25;100.00
70015;BME280;57358;51.094;6.760;2022-09-24T04:13:06;100638.34;;;10.59;100.00
70015;BME280;57358;51.094;6.760;2022-09-24T04:15:32;100728.84;;;11.01;100.00
70015;BME280;57358;51.094;6.760;2022-09-24T04:17:58;100703.63;;;10.98;100.00
70015;BME280;57358;51.094;6.760;2022-09-24T04:20:27;100744.38;;;11.22;100.00
70015;BME280;57358;51.094;6.760;2022-09-24T04:22:55;100748.13;;;11.17;100.00
70015;BME280;57358;51.094;6.760;2022-09-24T04:25:23;100774.63;;;11.13;100.00
70015;BME280;57358;51.094;6.760;2022-09-24T04:28:01;100732.41;;;11.00;100.00
70015;BME280;57358;51.094;6.760;2022-09-24T04:30:29;100705.00;;;10.88;100.00
70015;BME280;57358;51.094;6.760;2022-09-24T04:32:56;100748.25;;;11.14;100.00
70015;BME280;57358;51.094;6.760;2022-09-24T04:35:27;100747.34;;;11.15;100.00
70015;BME280;57358;51.094;6.760;2022-09-24T04:37:55;100751.69;;;11.16;100.00
70015;BME280;57358;51.094;6.760;2022-09-24T04:40:22;100743.81;;;11.16;100.00
70015;BME280;57358;51.094;6.760;2022-09-24T04:42:48;100657.06;;;10.69;100.00
70015;BME280;57358;51.094;6.760;2022-09-24T04:45:15;100727.44;;;11.11;100.00
70015;BME280;57358;51.094;6.760;2022-09-24T04:47:46;100743.47;;;11.23;100.00
70015;BME280;57358;51.094;6.760;2022-09-24T04:50:18;100722.19;;;11.11;100.00
70015;BME280;57358;51.094;6.760;2022-09-24T04:52:45;100661.91;;;10.76;100.00
70015;BME280;57358;51.094;6.760;2022-09-24T04:55:11;100723.44;;;11.20;100.00
70015;BME280;57358;51.094;6.760;2022-09-24T04:57:37;100731.75;;;11.28;100.00
70015;BME280;57358;51.094;6.760;2022-09-24T05:00:07;100731.69;;;11.30;100.00
70015;BME280;57358;51.094;6.760;2022-09-24T05:02:34;100590.47;;;10.38;100.00
70015;BME280;57358;51.094;6.760;2022-09-24T05:05:00;100692.78;;;11.05;100.00
70015;BME280;57358;51.094;6.760;2022-09-24T05:07:27;100717.00;;;11.10;100.00
70015;BME280;57358;51.094;6.760;2022-09-24T05:09:53;100718.88;;;11.24;100.00
70015;BME280;57358;51.094;6.760;2022-09-24T05:12:20;100733.19;;;11.34;100.00
70015;BME280;57358;51.094;6.760;2022-09-24T05:14:46;100699.22;;;11.15;100.00
70015;BME280;57358;51.094;6.760;2022-09-24T05:17:13;100668.78;;;10.95;100.00
70015;BME280;57358;51.094;6.760;2022-09-24T05:19:40;100731.53;;;11.33;100.00
70015;BME280;57358;51.094;6.760;2022-09-24T05:22:06;100601.75;;;10.56;100.00
70015;BME280;57358;51.094;6.760;2022-09-24T05:24:33;100701.66;;;11.18;100.00
70015;BME280;57358;51.094;6.760;2022-09-24T05:26:59;100625.41;;;10.72;100.00
70015;BME280;57358;51.094;6.760;2022-09-24T05:29:39;100720.16;;;11.32;100.00
70015;BME280;57358;51.094;6.760;2022-09-24T05:32:11;100626.00;;;10.77;100.00
70015;BME280;57358;51.094;6.760;2022-09-24T05:34:38;100679.22;;;10.96;100.00
70015;BME280;57358;51.094;6.760;2022-09-24T05:37:06;100630.81;;;10.69;100.00
70015;BME280;57358;51.094;6.760;2022-09-24T05:39:32;100691.91;;;11.04;100.00
70015;BME280;57358;51.094;6.760;2022-09-24T05:42:00;100717.69;;;11.13;100.00
70015;BME280;57358;51.094;6.760;2022-09-24T05:44:29;100673.63;;;10.87;100.00
70015;BME280;57358;51.094;6.760;2022-09-24T05:46:56;100732.97;;;11.23;100.00
70015;BME280;57358;51.094;6.760;2022-09-24T05:49:23;100751.25;;;11.24;100.00
70015;BME280;57358;51.094;6.760;2022-09-24T05:51:49;100682.34;;;10.87;100.00
70015;BME280;57358;51.094;6.760;2022-09-24T05:54:16;100722.19;;;11.11;100.00
70015;BME280;57358;51.094;6.760;2022-09-24T05:56:43;100744.81;;;11.30;100.00
70015;BME280;57358;51.094;6.760;2022-09-24T05:59:10;100746.53;;;11.31;100.00
70015;BME280;57358;51.094;6.760;2022-09-24T06:01:37;100579.69;;;10.27;100.00
70015;BME280;57358;51.094;6.760;2022-09-24T06:04:03;100699.97;;;11.01;100.00
70015;BME280;57358;51.094;6.760;2022-09-24T06:06:34;100738.31;;;11.37;100.00
70015;BME280;57358;51.094;6.760;2022-09-24T06:09:00;100729.88;;;11.30;100.00
70015;BME280;57358;51.094;6.760;2022-09-24T06:11:27;100688.88;;;11.12;100.00
70015;BME280;57358;51.094;6.760;2022-09-24T06:13:54;100724.41;;;11.35;100.00
70015;BME280;57358;51.094;6.760;2022-09-24T06:16:20;100679.97;;;11.14;100.00
70015;BME280;57358;51.094;6.760;2022-09-24T06:18:47;100738.72;;;11.61;100.00
70015;BME280;57358;51.094;6.760;2022-09-24T06:21:15;100745.44;;;11.67;100.00
70015;BME280;57358;51.094;6.760;2022-09-24T06:23:42;100659.56;;;11.20;100.00
70015;BME280;57358;51.094;6.760;2022-09-24T06:26:12;100741.00;;;11.83;100.00
70015;BME280;57358;51.094;6.760;2022-09-24T06:28:39;100673.78;;;11.47;100.00
70015;BME280;57358;51.094;6.760;2022-09-24T06:31:07;100683.25;;;11.66;100.00
70015;BME280;57358;51.094;6.760;2022-09-24T06:33:34;100752.25;;;12.17;100.00
70015;BME280;57358;51.094;6.760;2022-09-24T06:36:02;100684.63;;;11.89;100.00
70015;BME280;57358;51.094;6.760;2022-09-24T06:38:29;100651.00;;;11.78;100.00
70015;BME280;57358;51.094;6.760;2022-09-24T06:41:00;100724.38;;;12.29;100.00
70015;BME280;57358;51.094;6.760;2022-09-24T06:43:28;100748.72;;;12.47;100.00
70015;BME280;57358;51.094;6.760;2022-09-24T06:45:55;100666.91;;;12.07;100.00
70015;BME280;57358;51.094;6.760;2022-09-24T06:48:22;100598.16;;;11.52;100.00
70015;BME280;57358;51.094;6.760;2022-09-24T06:50:48;100725.00;;;12.32;100.00
70015;BME280;57358;51.094;6.760;2022-09-24T06:53:15;100657.31;;;12.06;100.00
70015;BME280;57358;51.094;6.760;2022-09-24T06:55:41;100709.97;;;12.34;100.00
70015;BME280;57358;51.094;6.760;2022-09-24T06:58:10;100741.06;;;12.58;100.00
70015;BME280;57358;51.094;6.760;2022-09-24T07:00:37;100743.31;;;12.64;100.00
70015;BME280;57358;51.094;6.760;2022-09-24T07:03:05;100759.63;;;13.00;100.00
70015;BME280;57358;51.094;6.760;2022-09-24T07:05:33;100712.75;;;12.90;100.00
70015;BME280;57358;51.094;6.760;2022-09-24T07:08:04;100680.50;;;12.87;100.00
70015;BME280;57358;51.094;6.760;2022-09-24T07:10:31;100754.91;;;13.48;100.00
70015;BME280;57358;51.094;6.760;2022-09-24T07:12:57;100605.09;;;12.71;100.00
70015;BME280;57358;51.094;6.760;2022-09-24T07:15:23;100694.09;;;13.36;100.00
70015;BME280;57358;51.094;6.760;2022-09-24T07:17:54;100716.25;;;13.61;100.00
70015;BME280;57358;51.094;6.760;2022-09-24T07:20:21;100755.97;;;13.72;100.00
70015;BME280;57358;51.094;6.760;2022-09-24T07:22:47;100709.25;;;13.18;100.00
70015;BME280;57358;51.094;6.760;2022-09-24T07:25:13;100687.00;;;12.95;100.00
70015;BME280;57358;51.094;6.760;2022-09-24T07:27:40;100711.44;;;13.12;100.00
70015;BME280;57358;51.094;6.760;2022-09-24T07:30:07;100751.69;;;13.28;100.00
70015;BME280;57358;51.094;6.760;2022-09-24T07:32:35;100658.97;;;12.80;100.00
70015;BME280;57358;51.094;6.760;2022-09-24T07:35:01;100744.84;;;13.40;100.00
70015;BME280;57358;51.094;6.760;2022-09-24T07:37:27;100749.69;;;13.61;100.00
70015;BME280;57358;51.094;6.760;2022-09-24T07:39:57;100773.63;;;13.85;100.00
70015;BME280;57358;51.094;6.760;2022-09-24T07:42:24;100717.97;;;13.75;100.00
70015;BME280;57358;51.094;6.760;2022-09-24T07:44:51;100718.28;;;13.70;100.00
70015;BME280;57358;51.094;6.760;2022-09-24T07:47:17;100743.91;;;13.95;100.00
70015;BME280;57358;51.094;6.760;2022-09-24T07:49:44;100705.59;;;13.90;100.00
70015;BME280;57358;51.094;6.760;2022-09-24T07:52:10;100780.47;;;14.54;100.00
70015;BME280;57358;51.094;6.760;2022-09-24T07:54:37;100738.31;;;14.27;100.00
70015;BME280;57358;51.094;6.760;2022-09-24T07:57:09;100687.03;;;14.04;100.00
70015;BME280;57358;51.094;6.760;2022-09-24T07:59:37;100765.41;;;14.56;100.00
70015;BME280;57358;51.094;6.760;2022-09-24T08:02:09;100773.53;;;14.66;100.00
70015;BME280;57358;51.094;6.760;2022-09-24T08:04:39;100776.00;;;14.69;100.00
70015;BME280;57358;51.094;6.760;2022-09-24T08:07:05;100647.47;;;13.91;100.00
70015;BME280;57358;51.094;6.760;2022-09-24T08:09:32;100715.38;;;14.41;100.00
70015;BME280;57358;51.094;6.760;2022-09-24T08:11:58;100784.66;;;14.71;100.00
70015;BME280;57358;51.094;6.760;2022-09-24T08:14:24;100708.22;;;14.30;100.00
70015;BME280;57358;51.094;6.760;2022-09-24T08:16:51;100452.91;;;12.49;100.00
70015;BME280;57358;51.094;6.760;2022-09-24T08:19:17;100553.16;;;13.15;100.00
70015;BME280;57358;51.094;6.760;2022-09-24T08:21:43;100751.50;;;14.27;100.00
70015;BME280;57358;51.094;6.760;2022-09-24T08:24:10;100672.63;;;13.70;100.00
70015;BME280;57358;51.094;6.760;2022-09-24T08:26:36;100783.84;;;14.44;100.00
70015;BME280;57358;51.094;6.760;2022-09-24T08:29:03;100742.59;;;14.15;100.00
70015;BME280;57358;51.094;6.760;2022-09-24T08:31:29;100743.72;;;13.99;100.00
70015;BME280;57358;51.094;6.760;2022-09-24T08:33:56;100736.28;;;14.18;100.00
70015;BME280;57358;51.094;6.760;2022-09-24T08:36:22;100716.16;;;14.03;100.00
70015;BME280;57358;51.094;6.760;2022-09-24T08:38:54;100746.75;;;14.32;100.00
70015;BME280;57358;51.094;6.760;2022-09-24T08:44:20;100738.88;;;14.45;100.00
70015;BME280;57358;51.094;6.760;2022-09-24T08:47:16;100780.09;;;14.86;100.00
70015;BME280;57358;51.094;6.760;2022-09-24T08:49:52;100782.44;;;15.04;100.00
70015;BME280;57358;51.094;6.760;2022-09-24T08:54:59;100753.38;;;15.04;100.00
70015;BME280;57358;51.094;6.760;2022-09-24T08:57:27;100795.75;;;15.28;100.00
70015;BME280;57358;51.094;6.760;2022-09-24T08:59:54;100731.59;;;15.00;100.00
70015;BME280;57358;51.094;6.760;2022-09-24T09:02:38;100789.34;;;15.43;100.00
70015;BME280;57358;51.094;6.760;2022-09-24T09:07:44;100785.31;;;16.11;100.00
70015;BME280;57358;51.094;6.760;2022-09-24T09:10:26;100780.25;;;16.32;100.00
70015;BME280;57358;51.094;6.760;2022-09-24T09:13:11;100773.13;;;16.22;100.00
70015;BME280;57358;51.094;6.760;2022-09-24T09:16:00;100777.69;;;16.31;100.00
70015;BME280;57358;51.094;6.760;2022-09-24T09:18:35;100742.00;;;16.12;100.00
70015;BME280;57358;51.094;6.760;2022-09-24T09:21:11;100784.00;;;16.41;100.00
70015;BME280;57358;51.094;6.760;2022-09-24T09:23:48;100749.03;;;16.25;100.00
70015;BME280;57358;51.094;6.760;2022-09-24T09:26:16;100736.78;;;16.24;100.00
70015;BME280;57358;51.094;6.760;2022-09-24T09:28:45;100776.91;;;16.53;100.00
70015;BME280;57358;51.094;6.760;2022-09-24T09:31:27;100649.50;;;15.75;100.00
70015;BME280;57358;51.094;6.760;2022-09-24T09:40:01;100794.72;;;16.98;99.33
70015;BME280;57358;51.094;6.760;2022-09-24T09:42:35;100789.56;;;16.96;99.65
70015;BME280;57358;51.094;6.760;2022-09-24T09:47:55;100786.06;;;17.29;100.00
70015;BME280;57358;51.094;6.760;2022-09-24T09:50:33;100781.63;;;16.96;100.00
70015;BME280;57358;51.094;6.760;2022-09-24T09:53:03;100731.19;;;16.62;100.00
70015;BME280;57358;51.094;6.760;2022-09-24T09:55:35;100739.75;;;16.77;99.79
70015;BME280;57358;51.094;6.760;2022-09-24T10:00:40;100733.25;;;16.70;99.88
70015;BME280;57358;51.094;6.760;2022-09-24T10:03:25;100729.00;;;16.67;100.00
70015;BME280;57358;51.094;6.760;2022-09-24T10:06:04;100773.66;;;16.96;100.00
70015;BME280;57358;51.094;6.760;2022-09-24T10:08:31;100730.44;;;16.49;100.00
70015;BME280;57358;51.094;6.760;2022-09-24T10:10:59;100788.19;;;16.79;100.00
70015;BME280;57358;51.094;6.760;2022-09-24T10:13:26;100790.56;;;16.71;100.00
70015;BME280;57358;51.094;6.760;2022-09-24T10:15:55;100791.25;;;16.50;100.00
70015;BME280;57358;51.094;6.760;2022-09-24T10:18:29;100762.69;;;16.43;100.00
70015;BME280;57358;51.094;6.760;2022-09-24T10:20:58;100733.16;;;16.25;100.00
70015;BME280;57358;51.094;6.760;2022-09-24T10:23:34;100794.50;;;16.89;100.00
70015;BME280;57358;51.094;6.760;2022-09-24T10:26:02;100728.44;;;16.64;100.00
70015;BME280;57358;51.094;6.760;2022-09-24T10:28:30;100740.22;;;16.71;100.00
70015;BME280;57358;51.094;6.760;2022-09-24T10:31:20;100780.75;;;16.84;100.00
70015;BME280;57358;51.094;6.760;2022-09-24T10:33:49;100795.47;;;17.00;100.00
70015;BME280;57358;51.094;6.760;2022-09-24T10:36:23;100762.97;;;16.73;100.00
70015;BME280;57358;51.094;6.760;2022-09-24T10:39:09;100768.56;;;16.82;100.00
70015;BME280;57358;51.094;6.760;2022-09-24T10:41:45;100779.31;;;17.03;100.00
70015;BME280;57358;51.094;6.760;2022-09-24T10:44:12;100802.84;;;17.19;100.00
70015;BME280;57358;51.094;6.760;2022-09-24T10:49:35;100796.22;;;17.24;99.94
70015;BME280;57358;51.094;6.760;2022-09-24T11:00:24;100792.97;;;17.32;97.40
70015;BME280;57358;51.094;6.760;2022-09-24T11:05:44;100790.19;;;17.22;97.26
70015;BME280;57358;51.094;6.760;2022-09-24T11:08:50;100665.78;;;16.63;97.15
70015;BME280;57358;51.094;6.760;2022-09-24T11:14:12;100754.56;;;16.80;95.19
70015;BME280;57358;51.094;6.760;2022-09-24T11:16:50;100791.88;;;17.34;96.76
70015;BME280;57358;51.094;6.760;2022-09-24T11:19:44;100777.03;;;16.87;95.62
70015;BME280;57358;51.094;6.760;2022-09-24T11:25:20;100793.06;;;17.19;97.02
70015;BME280;57358;51.094;6.760;2022-09-24T11:30:52;100698.31;;;16.65;97.10
70015;BME280;57358;51.094;6.760;2022-09-24T11:33:30;100794.75;;;17.31;96.82
70015;BME280;57358;51.094;6.760;2022-09-24T11:44:22;100762.44;;;16.81;97.67
70015;BME280;57358;51.094;6.760;2022-09-24T11:47:12;100787.50;;;16.88;98.20
70015;BME280;57358;51.094;6.760;2022-09-24T11:49:51;100778.63;;;16.54;98.05
70015;BME280;57358;51.094;6.760;2022-09-24T11:52:39;100789.78;;;16.82;98.53
70015;BME280;57358;51.094;6.760;2022-09-24T11:55:18;100795.28;;;16.79;99.36
70015;BME280;57358;51.094;6.760;2022-09-24T12:00:32;100717.84;;;16.17;99.31
70015;BME280;57358;51.094;6.760;2022-09-24T12:03:21;100785.81;;;16.41;100.00
70015;BME280;57358;51.094;6.760;2022-09-24T12:06:23;100679.06;;;15.56;100.00
70015;BME280;57358;51.094;6.760;2022-09-24T12:08:55;100800.16;;;16.14;100.00
70015;BME280;57358;51.094;6.760;2022-09-24T12:11:31;100780.84;;;16.36;100.00
70015;BME280;57358;51.094;6.760;2022-09-24T12:14:10;100779.56;;;16.42;100.00
70015;BME280;57358;51.094;6.760;2022-09-24T12:16:39;100789.53;;;16.38;100.00
70015;BME280;57358;51.094;6.760;2022-09-24T12:19:26;100717.84;;;16.17;99.45
70015;BME280;57358;51.094;6.760;2022-09-24T12:21:56;100737.66;;;16.47;98.00
70015;BME280;57358;51.094;6.760;2022-09-24T12:24:29;100783.00;;;16.78;97.09
70015;BME280;57358;51.094;6.760;2022-09-24T12:27:00;100768.34;;;16.85;92.57
70015;BME280;57358;51.094;6.760;2022-09-24T12:32:44;100778.84;;;17.43;92.61
70015;BME280;57358;51.094;6.760;2022-09-24T12:36:03;100731.94;;;17.21;89.05
70015;BME280;57358;51.094;6.760;2022-09-24T12:38:36;100687.13;;;16.84;85.39
70015;BME280;57358;51.094;6.760;2022-09-24T12:41:19;100741.59;;;17.10;88.48
70015;BME280;57358;51.094;6.760;2022-09-24T12:43:56;100778.00;;;17.42;85.12
70015;BME280;57358;51.094;6.760;2022-09-24T12:46:30;100719.16;;;17.26;84.32
70015;BME280;57358;51.094;6.760;2022-09-24T12:49:00;100772.25;;;17.69;86.26
70015;BME280;57358;51.094;6.760;2022-09-24T12:51:36;100728.16;;;17.57;87.98
70015;BME280;57358;51.094;6.760;2022-09-24T12:54:08;100715.00;;;17.55;86.60
70015;BME280;57358;51.094;6.760;2022-09-24T12:56:45;100697.50;;;17.64;86.87
70015;BME280;57358;51.094;6.760;2022-09-24T12:59:27;100721.03;;;17.58;84.00
70015;BME280;57358;51.094;6.760;2022-09-24T13:01:54;100757.97;;;17.82;84.84
70015;BME280;57358;51.094;6.760;2022-09-24T13:04:31;100683.94;;;17.24;87.10
70015;BME280;57358;51.094;6.760;2022-09-24T13:06:58;100764.25;;;17.92;85.60
70015;BME280;57358;51.094;6.760;2022-09-24T13:09:39;100744.97;;;17.79;83.44
70015;BME280;57358;51.094;6.760;2022-09-24T13:14:41;100758.09;;;17.91;83.36
70015;BME280;57358;51.094;6.760;2022-09-24T13:17:13;100753.63;;;17.92;85.56
70015;BME280;57358;51.094;6.760;2022-09-24T13:19:42;100754.16;;;17.86;86.85
70015;BME280;57358;51.094;6.760;2022-09-24T13:22:31;100754.38;;;17.83;86.85
70015;BME280;57358;51.094;6.760;2022-09-24T13:27:38;100765.72;;;17.19;88.41
70015;BME280;57358;51.094;6.760;2022-09-24T13:30:17;100720.50;;;16.98;88.36
70015;BME280;57358;51.094;6.760;2022-09-24T13:33:01;100717.00;;;16.97;89.64
70015;BME280;57358;51.094;6.760;2022-09-24T13:35:34;100767.16;;;17.34;89.96
70015;BME280;57358;51.094;6.760;2022-09-24T13:38:23;100700.88;;;16.89;91.20
70015;BME280;57358;51.094;6.760;2022-09-24T13:41:00;100688.88;;;16.49;92.08
70015;BME280;57358;51.094;6.760;2022-09-24T13:43:44;100770.28;;;17.17;92.40
70015;BME280;57358;51.094;6.760;2022-09-24T13:46:13;100769.56;;;17.03;92.84
70015;BME280;57358;51.094;6.760;2022-09-24T13:48:50;100581.66;;;15.74;95.96
70015;BME280;57358;51.094;6.760;2022-09-24T13:51:22;100779.91;;;16.95;96.84
70015;BME280;57358;51.094;6.760;2022-09-24T13:54:23;100771.50;;;16.90;96.32
70015;BME280;57358;51.094;6.760;2022-09-24T13:57:05;100713.34;;;16.42;97.11
70015;BME280;57358;51.094;6.760;2022-09-24T13:59:34;100612.66;;;15.72;98.53
70015;BME280;57358;51.094;6.760;2022-09-24T14:02:00;100685.16;;;15.94;99.89
70015;BME280;57358;51.094;6.760;2022-09-24T14:04:27;100719.00;;;16.02;100.00
70015;BME280;57358;51.094;6.760;2022-09-24T14:06:55;100775.06;;;16.31;100.00
70015;BME280;57358;51.094;6.760;2022-09-24T14:09:33;100753.84;;;16.20;100.00
70015;BME280;57358;51.094;6.760;2022-09-24T14:12:11;100777.47;;;16.34;100.00
70015;BME280;57358;51.094;6.760;2022-09-24T14:14:42;100773.88;;;16.35;100.00
70015;BME280;57358;51.094;6.760;2022-09-24T14:17:13;100749.41;;;16.31;100.00
70015;BME280;57358;51.094;6.760;2022-09-24T14:19:40;100696.75;;;16.04;100.00
70015;BME280;57358;51.094;6.760;2022-09-24T14:22:21;100762.69;;;16.43;100.00